createdAt,value
2022-12-15T00:00:24.751Z,18.40
2022-12-15T00:03:11.537Z,19.63
2022-12-15T00:05:58.014Z,21.90
2022-12-15T00:08:44.233Z,21.92
2022-12-15T00:11:31.061Z,21.55
2022-12-15T00:14:17.210Z,20.25
2022-12-15T00:17:03.279Z,18.17
2022-12-15T00:19:49.910Z,24.80
2022-12-15T00:22:36.096Z,21.75
2022-12-15T00:25:22.902Z,19.58
2022-12-15T00:28:09.491Z,22.90
2022-12-15T00:31:02.138Z,24.35
2022-12-15T00:33:48.765Z,30.75
2022-12-15T00:36:35.294Z,26.50
2022-12-15T00:39:04.325Z,25.17
2022-12-15T00:41:32.657Z,24.08
2022-12-15T00:44:00.498Z,29.85
2022-12-15T00:46:46.711Z,28.02
2022-12-15T00:49:34.041Z,27.23
2022-12-15T00:52:20.783Z,28.13
2022-12-15T00:55:07.317Z,24.75
2022-12-15T00:57:53.680Z,30.98
2022-12-15T01:00:40.467Z,29.48
2022-12-15T01:03:39.649Z,29.92
2022-12-15T01:06:28.037Z,32.95
2022-12-15T01:09:15.326Z,31.52
2022-12-15T01:12:02.970Z,31.10
2022-12-15T01:14:50.014Z,28.15
2022-12-15T01:17:36.976Z,26.10
2022-12-15T01:20:18.566Z,28.27
2022-12-15T01:22:55.923Z,28.98
2022-12-15T01:25:25.526Z,31.77
2022-12-15T01:27:53.965Z,33.10
2022-12-15T01:30:26.965Z,27.75
2022-12-15T01:32:54.679Z,29.65
2022-12-15T01:35:23.130Z,29.13
2022-12-15T01:37:51.115Z,32.63
2022-12-15T01:40:39.868Z,28.85
2022-12-15T01:43:16.568Z,31.77
2022-12-15T01:45:47.460Z,28.50
2022-12-15T01:48:21.237Z,31.48
2022-12-15T01:51:10.948Z,32.42
2022-12-15T01:53:45.563Z,27.95
2022-12-15T01:56:18.394Z,32.70
2022-12-15T01:58:49.858Z,30.80
2022-12-15T02:01:18.060Z,26.13
2022-12-15T02:03:49.409Z,30.83
2022-12-15T02:06:22.158Z,25.10
2022-12-15T02:08:52.771Z,26.85
2022-12-15T02:11:26.476Z,28.27
2022-12-15T02:14:05.826Z,24.08
2022-12-15T02:16:57.359Z,29.20
2022-12-15T02:19:31.517Z,27.77
2022-12-15T02:22:19.489Z,31.95
2022-12-15T02:25:25.350Z,31.30
2022-12-15T02:28:02.229Z,31.90
2022-12-15T02:30:40.730Z,35.75
2022-12-15T02:33:30.299Z,34.20
2022-12-15T02:36:15.978Z,34.10
2022-12-15T02:38:45.306Z,35.00
2022-12-15T02:41:31.983Z,35.15
2022-12-15T02:44:03.365Z,34.25
2022-12-15T02:47:02.789Z,34.50
2022-12-15T02:49:30.745Z,32.85
2022-12-15T02:52:29.105Z,40.20
2022-12-15T02:54:58.533Z,44.45
2022-12-15T03:00:15.947Z,33.53
2022-12-15T03:05:15.112Z,27.58
2022-12-15T03:07:43.111Z,24.57
2022-12-15T03:10:13.442Z,28.20
2022-12-15T03:15:09.357Z,30.23
2022-12-15T03:17:38.695Z,28.25
2022-12-15T03:20:07.108Z,30.63
2022-12-15T03:22:35.998Z,32.22
2022-12-15T03:25:04.757Z,42.53
2022-12-15T03:27:33.420Z,39.60
2022-12-15T03:30:01.346Z,31.70
2022-12-15T03:32:30.233Z,32.92
2022-12-15T03:34:58.163Z,37.03
2022-12-15T03:37:25.798Z,36.65
2022-12-15T03:39:53.480Z,29.88
2022-12-15T03:42:41.054Z,33.88
2022-12-15T03:45:09.425Z,32.22
2022-12-15T03:47:42.167Z,39.47
2022-12-15T03:50:11.836Z,30.52
2022-12-15T03:52:39.988Z,31.05
2022-12-15T03:55:08.113Z,29.15
2022-12-15T03:57:36.063Z,34.78
2022-12-15T04:00:05.875Z,32.42
2022-12-15T04:02:45.024Z,26.08
2022-12-15T04:05:28.329Z,26.00
2022-12-15T04:07:58.559Z,29.88
2022-12-15T04:10:33.522Z,28.92
2022-12-15T04:13:07.965Z,27.05
2022-12-15T04:15:37.572Z,24.33
2022-12-15T04:18:07.679Z,20.35
2022-12-15T04:20:35.335Z,25.40
2022-12-15T04:23:03.289Z,26.70
2022-12-15T04:25:50.059Z,29.02
2022-12-15T04:28:36.400Z,27.63
2022-12-15T04:31:27.849Z,27.55
2022-12-15T04:34:23.810Z,28.85
2022-12-15T04:37:12.453Z,25.17
2022-12-15T04:40:02.622Z,26.45
2022-12-15T04:42:51.781Z,26.30
2022-12-15T04:45:41.919Z,29.48
2022-12-15T04:48:29.216Z,23.58
2022-12-15T04:51:15.714Z,19.83
2022-12-15T04:54:04.027Z,22.88
2022-12-15T04:56:52.053Z,21.98
2022-12-15T04:59:38.682Z,23.50
2022-12-15T05:02:24.780Z,20.63
2022-12-15T05:05:11.492Z,23.50
2022-12-15T05:07:58.211Z,26.08
2022-12-15T05:10:44.334Z,22.75
2022-12-15T05:13:30.740Z,25.98
2022-12-15T05:16:17.324Z,22.67
2022-12-15T05:19:03.630Z,21.40
2022-12-15T05:21:50.027Z,22.98
2022-12-15T05:24:36.785Z,24.00
2022-12-15T05:27:23.045Z,24.45
2022-12-15T05:30:09.360Z,24.58
2022-12-15T05:32:37.093Z,24.58
2022-12-15T05:35:05.558Z,25.45
2022-12-15T05:37:33.143Z,22.42
2022-12-15T05:40:01.403Z,24.13
2022-12-15T05:42:29.162Z,29.77
2022-12-15T05:44:56.827Z,46.83
2022-12-15T05:47:24.627Z,33.45
2022-12-15T05:49:52.704Z,34.45
2022-12-15T05:52:20.423Z,28.02
2022-12-15T05:54:48.269Z,25.20
2022-12-15T05:57:16.157Z,29.45
2022-12-15T05:59:43.948Z,25.15
2022-12-15T06:02:11.817Z,28.33
2022-12-15T06:04:39.890Z,28.58
2022-12-15T06:07:07.652Z,26.27
2022-12-15T06:09:35.742Z,31.40
2022-12-15T06:12:04.080Z,29.42
2022-12-15T06:14:32.022Z,44.08
2022-12-15T06:17:00.540Z,55.47
2022-12-15T06:19:28.407Z,38.08
2022-12-15T06:21:56.575Z,45.33
2022-12-15T06:24:26.521Z,45.30
2022-12-15T06:26:54.395Z,36.97
2022-12-15T06:29:22.724Z,38.85
2022-12-15T06:31:50.687Z,36.92
2022-12-15T06:34:18.768Z,42.22
2022-12-15T06:36:46.635Z,40.03
2022-12-15T06:39:15.654Z,41.30
2022-12-15T06:41:44.228Z,50.35
2022-12-15T06:44:16.780Z,47.58
2022-12-15T06:46:46.312Z,44.90
2022-12-15T06:49:15.274Z,43.20
2022-12-15T06:51:44.682Z,39.28
2022-12-15T06:54:13.289Z,39.53
2022-12-15T06:56:41.384Z,34.50
2022-12-15T06:59:10.859Z,31.63
2022-12-15T07:01:38.937Z,33.00
2022-12-15T07:04:07.101Z,31.70
2022-12-15T07:06:39.328Z,29.35
2022-12-15T07:09:12.664Z,33.60
2022-12-15T07:11:40.930Z,30.67
2022-12-15T07:14:10.580Z,31.70
2022-12-15T07:16:38.656Z,31.42
2022-12-15T07:19:06.748Z,29.42
2022-12-15T07:21:34.767Z,33.00
2022-12-15T07:24:03.155Z,29.63
2022-12-15T07:26:31.167Z,27.85
2022-12-15T07:28:58.756Z,30.48
2022-12-15T07:31:26.513Z,29.13
2022-12-15T07:33:55.040Z,22.30
2022-12-15T07:36:23.153Z,20.48
2022-12-15T07:38:51.996Z,26.33
2022-12-15T07:41:21.207Z,22.70
2022-12-15T07:43:49.930Z,27.98
2022-12-15T07:46:18.811Z,22.20
2022-12-15T07:48:50.496Z,27.38
2022-12-15T07:51:21.031Z,28.33
2022-12-15T07:53:50.826Z,33.15
2022-12-15T07:56:19.795Z,56.93
2022-12-15T07:58:48.102Z,27.15
2022-12-15T08:01:17.527Z,24.90
2022-12-15T08:03:46.071Z,27.02
2022-12-15T08:06:15.351Z,25.35
2022-12-15T08:08:50.480Z,25.95
2022-12-15T08:11:21.456Z,24.15
2022-12-15T08:14:02.562Z,26.95
2022-12-15T08:16:32.279Z,32.15
2022-12-15T08:19:00.314Z,35.75
2022-12-15T08:21:28.444Z,28.77
2022-12-15T08:23:56.580Z,294.60
2022-12-15T08:26:30.023Z,166.70
2022-12-15T08:31:52.768Z,79.78
2022-12-15T08:34:21.248Z,406.77
2022-12-15T08:36:49.407Z,128.05
2022-12-15T08:39:17.853Z,45.58
2022-12-15T08:41:46.001Z,30.88
2022-12-15T08:44:14.249Z,30.48
2022-12-15T08:46:42.168Z,32.47
2022-12-15T08:49:10.539Z,26.73
2022-12-15T08:51:38.742Z,34.13
2022-12-15T08:54:06.947Z,31.20
2022-12-15T08:56:36.486Z,30.00
2022-12-15T08:59:05.011Z,22.60
2022-12-15T09:01:33.245Z,31.52
2022-12-15T09:04:04.525Z,24.63
2022-12-15T09:06:34.937Z,30.35
2022-12-15T09:09:07.859Z,29.98
2022-12-15T09:11:36.128Z,32.05
2022-12-15T09:14:04.655Z,39.50
2022-12-15T09:16:32.708Z,31.73
2022-12-15T09:19:01.211Z,24.13
2022-12-15T09:21:31.284Z,40.90
2022-12-15T09:24:02.315Z,33.75
2022-12-15T09:26:32.832Z,28.55
2022-12-15T09:29:02.992Z,41.88
2022-12-15T09:31:37.954Z,50.90
2022-12-15T09:34:06.085Z,54.13
2022-12-15T09:36:33.961Z,30.23
2022-12-15T09:39:03.257Z,26.48
2022-12-15T09:41:33.533Z,24.90
2022-12-15T09:46:58.296Z,28.95
2022-12-15T09:49:46.097Z,34.97
2022-12-15T09:52:17.584Z,37.10
2022-12-15T09:54:46.865Z,54.40
2022-12-15T09:57:14.868Z,42.95
2022-12-15T10:00:12.419Z,49.95
2022-12-15T10:03:08.314Z,30.85
2022-12-15T10:06:06.862Z,65.20
2022-12-15T10:08:35.247Z,52.97
2022-12-15T10:11:15.726Z,53.67
2022-12-15T10:16:28.592Z,59.75
2022-12-15T10:19:08.908Z,58.17
2022-12-15T10:21:37.476Z,74.25
2022-12-15T10:24:51.868Z,61.63
2022-12-15T10:27:25.756Z,68.68
2022-12-15T10:30:02.451Z,80.90
2022-12-15T10:32:54.405Z,111.55
2022-12-15T10:35:28.503Z,94.38
2022-12-15T10:38:00.884Z,106.07
2022-12-15T10:40:57.112Z,152.90
2022-12-15T10:43:30.405Z,159.73
2022-12-15T10:46:11.537Z,61.50
2022-12-15T10:48:48.992Z,67.03
2022-12-15T10:51:37.809Z,79.90
2022-12-15T10:54:15.852Z,160.85
2022-12-15T10:56:52.798Z,129.77
2022-12-15T10:59:29.662Z,73.28
2022-12-15T11:02:23.094Z,65.60
2022-12-15T11:05:19.148Z,121.40
2022-12-15T11:07:49.962Z,49.33
2022-12-15T11:10:51.750Z,35.05
2022-12-15T11:13:24.857Z,33.47
2022-12-15T11:15:56.838Z,31.45
2022-12-15T11:18:43.959Z,26.57
2022-12-15T11:21:39.835Z,28.63
2022-12-15T11:24:13.649Z,32.80
2022-12-15T11:27:03.153Z,47.75
2022-12-15T11:29:45.473Z,50.37
2022-12-15T11:32:23.443Z,71.97
2022-12-15T11:34:53.652Z,50.90
2022-12-15T11:37:37.257Z,43.78
2022-12-15T11:40:05.282Z,31.95
2022-12-15T11:42:54.901Z,28.60
2022-12-15T11:45:34.685Z,20.60
2022-12-15T11:48:17.802Z,26.85
2022-12-15T11:50:53.969Z,32.50
2022-12-15T11:54:04.144Z,35.80
2022-12-15T11:56:37.544Z,35.28
2022-12-15T11:59:33.157Z,34.83
2022-12-15T12:02:22.463Z,45.28
2022-12-15T12:05:28.011Z,40.38
2022-12-15T12:08:17.618Z,47.33
2022-12-15T12:11:13.108Z,47.58
2022-12-15T12:13:53.101Z,41.22
2022-12-15T12:16:40.563Z,37.45
2022-12-15T12:19:19.104Z,36.08
2022-12-15T12:21:50.790Z,81.60
2022-12-15T12:24:42.162Z,55.17
2022-12-15T12:27:44.275Z,59.92
2022-12-15T12:30:22.936Z,87.20
2022-12-15T12:33:03.258Z,39.40
2022-12-15T12:36:10.473Z,138.85
2022-12-15T12:38:50.565Z,90.25
2022-12-15T12:41:47.073Z,60.47
2022-12-15T12:44:34.307Z,72.47
2022-12-15T12:47:16.470Z,92.03
2022-12-15T12:50:08.133Z,74.80
2022-12-15T12:52:38.274Z,80.72
2022-12-15T12:55:29.260Z,73.57
2022-12-15T12:57:57.300Z,105.25
2022-12-15T13:00:29.244Z,151.90
2022-12-15T13:03:15.045Z,100.70
2022-12-15T13:05:44.813Z,87.35
2022-12-15T13:10:43.973Z,66.68
2022-12-15T13:13:19.576Z,61.10
2022-12-15T13:19:10.734Z,59.72
2022-12-15T13:21:45.140Z,72.60
2022-12-15T13:24:58.952Z,69.88
2022-12-15T13:27:37.253Z,58.88
2022-12-15T13:30:08.177Z,55.55
2022-12-15T13:32:39.171Z,55.72
2022-12-15T13:35:13.105Z,60.15
2022-12-15T13:38:07.714Z,62.50
2022-12-15T13:40:36.000Z,63.85
2022-12-15T13:43:04.046Z,70.35
2022-12-15T13:45:38.446Z,70.57
2022-12-15T13:48:24.288Z,68.13
2022-12-15T13:51:34.742Z,64.40
2022-12-15T13:54:19.264Z,68.68
2022-12-15T13:57:15.610Z,68.97
2022-12-15T13:59:53.760Z,71.40
2022-12-15T14:02:31.326Z,72.43
2022-12-15T14:05:23.678Z,73.20
2022-12-15T14:08:00.758Z,76.32
2022-12-15T14:10:40.791Z,88.28
2022-12-15T14:13:16.270Z,86.68
2022-12-15T14:15:50.853Z,80.78
2022-12-15T14:18:46.210Z,76.65
2022-12-15T14:21:23.952Z,73.03
2022-12-15T14:24:28.492Z,67.18
2022-12-15T14:26:41.902Z,70.00
2022-12-15T14:29:10.721Z,68.65
2022-12-15T14:31:40.927Z,76.43
2022-12-15T14:36:43.608Z,70.65
2022-12-15T14:39:24.958Z,51.73
2022-12-15T14:41:54.675Z,66.05
2022-12-15T14:44:37.911Z,66.38
2022-12-15T14:47:17.296Z,66.80
2022-12-15T14:49:46.238Z,60.95
2022-12-15T14:52:28.795Z,61.65
2022-12-15T14:55:21.773Z,66.63
2022-12-15T14:57:53.776Z,66.40
2022-12-15T15:00:27.765Z,63.78
2022-12-15T15:03:16.048Z,63.92
2022-12-15T15:03:18.147Z,62.47
2022-12-15T15:05:57.865Z,65.47
2022-12-15T15:08:42.818Z,67.80
2022-12-15T15:11:39.606Z,69.05
2022-12-15T15:14:24.014Z,78.68
2022-12-15T15:17:14.096Z,70.43
2022-12-15T15:20:03.942Z,67.75
2022-12-15T15:22:40.368Z,71.38
2022-12-15T15:25:33.638Z,64.95
2022-12-15T15:28:13.602Z,64.45
2022-12-15T15:30:48.610Z,50.15
2022-12-15T15:33:18.415Z,49.88
2022-12-15T15:35:53.454Z,52.63
2022-12-15T15:38:27.395Z,66.93
2022-12-15T15:40:58.298Z,69.85
2022-12-15T15:43:27.749Z,81.35
2022-12-15T15:46:03.539Z,90.70
2022-12-15T15:48:38.430Z,85.45
2022-12-15T15:51:07.216Z,92.03
2022-12-15T15:53:36.401Z,81.97
2022-12-15T15:56:07.653Z,296.60
2022-12-15T15:58:36.533Z,291.35
2022-12-15T16:01:11.167Z,101.18
2022-12-15T16:03:41.570Z,88.72
2022-12-15T16:06:19.134Z,297.50
2022-12-15T16:08:54.431Z,127.13
2022-12-15T16:11:23.486Z,96.90
2022-12-15T16:13:51.368Z,81.90
2022-12-15T16:16:22.158Z,86.30
2022-12-15T16:18:50.156Z,81.63
2022-12-15T16:21:20.127Z,79.03
2022-12-15T16:23:49.252Z,82.03
2022-12-15T16:26:30.639Z,77.95
2022-12-15T16:28:59.165Z,81.63
2022-12-15T16:31:40.663Z,80.68
2022-12-15T16:34:09.369Z,74.88
2022-12-15T16:36:37.614Z,81.80
2022-12-15T16:39:32.012Z,81.65
2022-12-15T16:42:00.722Z,76.65
2022-12-15T16:44:32.063Z,73.68
2022-12-15T16:47:00.411Z,75.18
2022-12-15T16:49:35.137Z,77.00
2022-12-15T16:52:05.127Z,68.32
2022-12-15T16:54:32.960Z,70.45
2022-12-15T16:57:01.315Z,78.07
2022-12-15T16:59:34.214Z,88.85
2022-12-15T17:02:30.410Z,82.22
2022-12-15T17:04:58.590Z,79.60
2022-12-15T17:07:28.339Z,80.30
2022-12-15T17:09:56.939Z,93.82
2022-12-15T17:12:25.062Z,98.68
2022-12-15T17:14:53.142Z,77.22
2022-12-15T17:17:21.906Z,75.45
2022-12-15T17:22:39.011Z,88.82
2022-12-15T17:25:14.143Z,88.35
2022-12-15T17:27:43.169Z,80.40
2022-12-15T17:30:17.683Z,78.55
2022-12-15T17:32:47.187Z,84.28
2022-12-15T17:35:16.216Z,81.85
2022-12-15T17:37:45.158Z,61.88
2022-12-15T17:40:22.959Z,87.07
2022-12-15T17:42:51.759Z,86.10
2022-12-15T17:45:27.254Z,78.65
2022-12-15T17:47:56.498Z,100.25
2022-12-15T17:50:25.678Z,91.55
2022-12-15T17:52:53.896Z,77.53
2022-12-15T17:55:34.642Z,81.47
2022-12-15T17:58:03.692Z,94.72
2022-12-15T18:00:36.061Z,95.68
2022-12-15T18:03:04.779Z,111.70
2022-12-15T18:05:35.558Z,111.43
2022-12-15T18:08:12.031Z,115.20
2022-12-15T18:10:41.718Z,130.82
2022-12-15T18:13:18.794Z,131.23
2022-12-15T18:15:48.239Z,164.90
2022-12-15T18:18:18.440Z,135.33
2022-12-15T18:20:46.735Z,133.02
2022-12-15T18:23:25.168Z,134.38
2022-12-15T18:25:57.214Z,143.05
2022-12-15T18:28:31.624Z,129.18
2022-12-15T18:33:35.036Z,134.50
2022-12-15T18:36:03.199Z,126.85
2022-12-15T18:38:31.088Z,116.10
2022-12-15T18:41:01.422Z,121.43
2022-12-15T18:45:59.405Z,130.83
2022-12-15T18:48:33.302Z,133.20
2022-12-15T18:51:03.261Z,142.30
2022-12-15T18:53:39.122Z,115.88
2022-12-15T18:56:09.763Z,122.35
2022-12-15T19:01:09.459Z,79.77
2022-12-15T19:03:41.865Z,72.53
2022-12-15T19:06:24.001Z,67.53
2022-12-15T19:08:54.170Z,65.03
2022-12-15T19:11:31.564Z,63.90
2022-12-15T19:14:01.689Z,65.28
2022-12-15T19:16:53.468Z,115.78
2022-12-15T19:19:40.099Z,92.20
2022-12-15T19:22:30.465Z,80.50
2022-12-15T19:24:59.657Z,69.53
2022-12-15T19:27:28.072Z,65.20
2022-12-15T19:30:10.184Z,62.35
2022-12-15T19:32:43.981Z,64.25
2022-12-15T19:35:13.546Z,59.95
2022-12-15T19:37:45.188Z,59.17
2022-12-15T19:40:30.729Z,65.72
2022-12-15T19:43:00.675Z,60.75
2022-12-15T19:45:31.219Z,56.67
2022-12-15T19:48:00.679Z,55.92
2022-12-15T19:53:02.168Z,95.15
2022-12-15T19:55:34.206Z,87.68
2022-12-15T19:58:27.905Z,81.07
2022-12-15T20:01:04.607Z,73.35
2022-12-15T20:03:34.470Z,74.10
2022-12-15T20:06:04.644Z,64.47
2022-12-15T20:08:41.452Z,68.38
2022-12-15T20:11:21.434Z,69.13
2022-12-15T20:13:51.597Z,65.25
2022-12-15T20:16:23.305Z,67.83
2022-12-15T20:18:53.894Z,63.50
2022-12-15T20:21:23.655Z,63.08
2022-12-15T20:23:56.567Z,60.78
2022-12-15T20:26:26.521Z,61.97
2022-12-15T20:28:54.843Z,61.53
2022-12-15T20:31:24.074Z,58.80
2022-12-15T20:33:53.644Z,56.55
2022-12-15T20:36:28.438Z,58.85
2022-12-15T20:38:57.380Z,54.38
2022-12-15T20:41:28.196Z,52.97
2022-12-15T20:43:57.436Z,56.70
2022-12-15T20:46:28.914Z,60.17
2022-12-15T20:48:57.425Z,54.95
2022-12-15T20:51:29.581Z,60.97
2022-12-15T20:54:00.235Z,65.20
2022-12-15T20:56:29.154Z,63.90
2022-12-15T20:58:58.188Z,62.15
2022-12-15T21:01:30.917Z,61.10
2022-12-15T21:04:01.564Z,55.80
2022-12-15T21:06:31.122Z,61.83
2022-12-15T21:08:59.838Z,51.10
2022-12-15T21:11:31.615Z,55.70
2022-12-15T21:14:04.317Z,48.15
2022-12-15T21:16:33.212Z,54.28
2022-12-15T21:19:22.653Z,49.05
2022-12-15T21:21:54.882Z,57.83
2022-12-15T21:24:26.937Z,57.20
2022-12-15T21:26:57.380Z,55.70
2022-12-15T21:31:55.267Z,49.67
2022-12-15T21:34:23.383Z,59.17
2022-12-15T21:36:55.313Z,50.25
2022-12-15T21:39:33.873Z,57.50
2022-12-15T21:42:16.545Z,56.38
2022-12-15T21:44:45.529Z,65.88
2022-12-15T21:47:48.476Z,54.28
2022-12-15T21:50:18.980Z,63.13
2022-12-15T21:52:48.071Z,55.30
2022-12-15T21:55:18.228Z,62.75
2022-12-15T21:57:47.101Z,58.50
2022-12-15T22:00:17.923Z,67.68
2022-12-15T22:02:47.995Z,64.07
2022-12-15T22:05:21.823Z,57.75
2022-12-15T22:07:50.869Z,55.65
2022-12-15T22:10:19.617Z,57.70
2022-12-15T22:12:59.026Z,58.10
2022-12-15T22:15:29.707Z,61.00
2022-12-15T22:17:58.221Z,57.97
2022-12-15T22:20:26.382Z,82.65
2022-12-15T22:22:54.329Z,93.30
2022-12-15T22:25:25.150Z,117.35
2022-12-15T22:30:27.482Z,73.47
2022-12-15T22:32:55.489Z,124.60
2022-12-15T22:35:25.966Z,112.25
2022-12-15T22:40:44.031Z,103.72
2022-12-15T22:43:26.560Z,93.85
2022-12-15T22:45:55.483Z,108.68
2022-12-15T22:48:31.478Z,126.88
2022-12-15T22:51:00.458Z,134.38
2022-12-15T22:53:31.874Z,232.40
2022-12-15T22:56:04.818Z,208.52
2022-12-15T22:58:41.728Z,198.88
2022-12-15T23:01:10.557Z,153.45
2022-12-15T23:03:38.339Z,116.30
2022-12-15T23:06:06.301Z,88.45
2022-12-15T23:08:33.988Z,73.22
2022-12-15T23:11:20.388Z,81.07
2022-12-15T23:13:48.752Z,68.47
2022-12-15T23:16:22.610Z,71.95
2022-12-15T23:18:55.333Z,74.93
2022-12-15T23:21:25.011Z,123.93
2022-12-15T23:23:53.685Z,98.93
2022-12-15T23:26:24.033Z,97.28
2022-12-15T23:28:53.119Z,70.22
2022-12-15T23:31:23.538Z,71.65
2022-12-15T23:33:52.119Z,78.47
2022-12-15T23:36:20.495Z,59.95
2022-12-15T23:38:48.377Z,63.00
2022-12-15T23:41:18.731Z,49.13
2022-12-15T23:43:47.571Z,51.58
2022-12-15T23:46:15.796Z,56.60
2022-12-15T23:48:45.010Z,69.40
2022-12-15T23:51:18.467Z,63.88
2022-12-15T23:53:48.046Z,69.55
2022-12-15T23:56:22.625Z,98.07
2022-12-15T23:58:58.987Z,62.92
